createdAt,value
2022-10-28T00:03:19.433Z,101299.63
2022-10-28T00:08:20.869Z,101306.16
2022-10-28T00:13:22.323Z,101304.63
2022-10-28T00:18:23.756Z,101304.50
2022-10-28T00:23:25.181Z,101298.84
2022-10-28T00:28:26.641Z,101292.00
2022-10-28T00:33:28.031Z,101293.34
2022-10-28T00:38:30.783Z,101294.94
2022-10-28T00:43:40.959Z,101288.25
2022-10-28T00:48:45.133Z,101292.97
2022-10-28T00:53:48.240Z,101295.75
2022-10-28T00:58:51.173Z,101296.56
2022-10-28T01:03:53.696Z,101293.41
2022-10-28T01:08:59.046Z,101293.72
2022-10-28T01:14:23.613Z,101287.97
2022-10-28T01:19:43.943Z,101291.31
2022-10-28T01:25:02.429Z,101298.47
2022-10-28T01:30:23.673Z,101306.66
2022-10-28T01:35:43.733Z,101302.91
2022-10-28T01:40:57.090Z,101294.19
2022-10-28T01:46:04.397Z,101299.94
2022-10-28T01:51:22.373Z,101294.16
2022-10-28T01:56:30.952Z,101282.38
2022-10-28T02:01:34.076Z,101277.13
2022-10-28T02:06:38.776Z,101271.44
2022-10-28T02:12:07.576Z,101267.50
2022-10-28T02:17:30.224Z,101270.25
2022-10-28T02:22:57.930Z,101254.13
2022-10-28T02:28:08.399Z,101243.06
2022-10-28T02:33:13.100Z,101248.34
2022-10-28T02:38:20.791Z,101255.72
2022-10-28T02:43:24.811Z,101243.59
2022-10-28T02:48:31.157Z,101244.69
2022-10-28T02:53:42.407Z,101246.72
2022-10-28T02:58:45.408Z,101240.75
2022-10-28T03:03:46.924Z,101231.09
2022-10-28T03:08:48.400Z,101233.88
2022-10-28T03:13:49.914Z,101220.72
2022-10-28T03:18:51.335Z,101221.84
2022-10-28T03:23:52.935Z,101226.50
2022-10-28T03:28:54.368Z,101220.41
2022-10-28T03:33:56.004Z,101217.63
2022-10-28T03:38:57.475Z,101211.53
2022-10-28T03:43:59.105Z,101200.19
2022-10-28T03:49:00.562Z,101208.91
2022-10-28T03:54:02.100Z,101198.72
2022-10-28T03:59:03.587Z,101194.81
2022-10-28T04:04:05.397Z,101201.09
2022-10-28T04:09:06.930Z,101207.72
2022-10-28T04:14:08.410Z,101219.09
2022-10-28T04:19:09.888Z,101229.25
2022-10-28T04:24:11.381Z,101223.22
2022-10-28T04:29:12.840Z,101225.09
2022-10-28T04:34:14.375Z,101223.50
2022-10-28T04:39:15.904Z,101231.38
2022-10-28T04:44:17.436Z,101231.44
2022-10-28T04:49:18.902Z,101216.66
2022-10-28T04:54:20.327Z,101222.84
2022-10-28T04:59:21.799Z,101232.31
2022-10-28T05:04:23.363Z,101224.44
2022-10-28T05:09:24.849Z,101224.25
2022-10-28T05:14:26.356Z,101233.25
2022-10-28T05:19:27.837Z,101237.69
2022-10-28T05:24:29.318Z,101237.63
2022-10-28T05:29:33.332Z,101233.56
2022-10-28T05:34:35.073Z,101220.09
2022-10-28T05:39:36.523Z,101224.59
2022-10-28T05:44:38.126Z,101224.28
2022-10-28T05:49:39.831Z,101224.34
2022-10-28T05:54:41.334Z,101218.25
2022-10-28T05:59:42.788Z,101228.03
2022-10-28T06:04:44.275Z,101221.59
2022-10-28T06:09:45.740Z,101226.84
2022-10-28T06:14:45.745Z,101225.09
2022-10-28T06:19:47.271Z,101226.84
2022-10-28T06:24:48.738Z,101240.50
2022-10-28T06:29:50.179Z,101240.94
2022-10-28T06:34:51.787Z,101234.06
2022-10-28T06:39:53.344Z,101220.97
2022-10-28T06:44:54.957Z,101235.56
2022-10-28T06:49:57.961Z,101249.03
2022-10-28T06:54:59.393Z,101244.53
2022-10-28T07:00:00.888Z,101248.91
2022-10-28T07:05:02.330Z,101246.22
2022-10-28T07:10:07.346Z,101252.94
2022-10-28T07:15:10.201Z,101249.63
2022-10-28T07:20:11.839Z,101252.59
2022-10-28T07:25:13.426Z,101254.94
2022-10-28T07:30:15.004Z,101262.19
2022-10-28T07:35:16.637Z,101267.38
2022-10-28T07:40:19.316Z,101269.81
2022-10-28T07:45:21.163Z,101272.53
2022-10-28T07:50:22.785Z,101285.78
2022-10-28T07:55:26.074Z,101292.72
2022-10-28T08:00:27.686Z,101283.25
2022-10-28T08:05:29.227Z,101276.97
2022-10-28T08:10:30.675Z,101263.78
2022-10-28T08:15:32.223Z,101274.69
2022-10-28T08:20:33.751Z,101276.50
2022-10-28T08:25:37.101Z,101277.47
2022-10-28T08:30:56.659Z,101269.78
2022-10-28T08:35:58.969Z,101269.13
2022-10-28T08:41:06.338Z,101277.47
2022-10-28T08:46:36.569Z,101271.19
2022-10-28T08:52:02.116Z,101269.81
2022-10-28T08:57:11.058Z,101262.94
2022-10-28T09:02:24.691Z,101261.81
2022-10-28T09:07:26.170Z,101258.66
2022-10-28T09:12:53.987Z,101258.94
2022-10-28T09:18:00.205Z,101251.16
2022-10-28T09:23:23.334Z,101257.97
2022-10-28T09:28:43.410Z,101250.31
2022-10-28T09:33:55.909Z,101250.59
2022-10-28T09:39:01.111Z,101262.22
2022-10-28T09:44:12.356Z,101264.16
2022-10-28T09:49:24.034Z,101266.88
2022-10-28T09:54:34.643Z,101260.75
2022-10-28T09:59:36.334Z,101265.31
2022-10-28T10:04:37.858Z,101266.50
2022-10-28T10:09:39.769Z,101271.78
2022-10-28T10:14:56.519Z,101258.66
2022-10-28T10:20:01.230Z,101263.69
2022-10-28T10:25:21.271Z,101264.50
2022-10-28T10:30:31.480Z,101265.63
2022-10-28T10:35:37.652Z,101261.78
2022-10-28T10:40:50.943Z,101257.81
2022-10-28T10:46:18.055Z,101261.50
2022-10-28T10:51:25.849Z,101248.84
2022-10-28T10:56:32.978Z,101252.03
2022-10-28T11:01:39.567Z,101256.84
2022-10-28T11:06:48.698Z,101246.00
2022-10-28T11:11:53.182Z,101244.06
2022-10-28T11:16:59.791Z,101234.38
2022-10-28T11:22:17.060Z,101218.31
2022-10-28T11:27:40.705Z,101208.63
2022-10-28T11:33:14.797Z,101218.31
2022-10-28T11:38:35.099Z,101210.53
2022-10-28T11:43:58.582Z,101213.88
2022-10-28T11:49:37.841Z,101215.41
2022-10-28T11:55:07.921Z,101215.44
2022-10-28T12:00:34.928Z,101205.72
2022-10-28T12:05:43.674Z,101185.63
2022-10-28T12:11:11.633Z,101183.78
2022-10-28T12:16:37.159Z,101174.88
2022-10-28T12:21:57.432Z,101178.91
2022-10-28T12:27:02.766Z,101175.09
2022-10-28T12:32:12.255Z,101176.31
2022-10-28T12:37:24.766Z,101181.56
2022-10-28T12:42:34.032Z,101188.38
2022-10-28T12:48:03.040Z,101173.72
2022-10-28T12:53:04.500Z,101182.19
2022-10-28T12:58:29.633Z,101180.59
2022-10-28T13:03:31.559Z,101187.53
2022-10-28T13:08:49.008Z,101198.50
2022-10-28T13:14:02.260Z,101192.53
2022-10-28T13:19:17.658Z,101206.13
2022-10-28T13:24:51.903Z,101210.00
2022-10-28T13:29:56.967Z,101211.00
2022-10-28T13:35:00.419Z,101208.59
2022-10-28T13:40:01.963Z,101213.66
2022-10-28T13:45:03.888Z,101216.38
2022-10-28T13:50:08.780Z,101223.69
2022-10-28T13:55:27.293Z,101218.44
2022-10-28T14:05:33.328Z,101237.16
2022-10-28T14:10:38.425Z,101236.91
2022-10-28T14:15:40.863Z,101246.69
2022-10-28T14:20:48.262Z,101261.88
2022-10-28T14:25:49.666Z,101272.47
2022-10-28T14:31:12.265Z,101261.75
2022-10-28T14:36:19.659Z,101260.53
2022-10-28T14:41:36.059Z,101254.47
2022-10-28T14:46:56.594Z,101276.59
2022-10-28T14:52:07.334Z,101298.72
2022-10-28T14:57:10.245Z,101292.84
2022-10-28T15:02:22.692Z,101298.56
2022-10-28T15:07:24.488Z,101302.72
2022-10-28T15:12:26.563Z,101310.84
2022-10-28T15:17:39.296Z,101310.47
2022-10-28T15:22:41.685Z,101314.56
2022-10-28T15:27:45.927Z,101322.75
2022-10-28T15:32:47.404Z,101313.88
2022-10-28T15:37:48.908Z,101319.09
2022-10-28T15:43:04.972Z,101321.06
2022-10-28T15:48:13.692Z,101327.06
2022-10-28T15:53:40.037Z,101331.09
2022-10-28T15:58:43.674Z,101339.50
2022-10-28T16:03:47.023Z,101352.25
2022-10-28T16:08:59.793Z,101358.16
2022-10-28T16:14:07.503Z,101351.78
2022-10-28T16:19:17.720Z,101357.94
2022-10-28T16:24:19.222Z,101353.41
2022-10-28T16:29:20.722Z,101362.53
2022-10-28T16:34:22.225Z,101373.88
2022-10-28T16:39:23.689Z,101363.59
2022-10-28T16:44:27.121Z,101368.84
2022-10-28T16:49:28.687Z,101372.53
2022-10-28T16:54:30.133Z,101382.19
2022-10-28T16:59:31.869Z,101391.72
2022-10-28T17:04:33.406Z,101398.34
2022-10-28T17:09:34.869Z,101408.81
2022-10-28T17:14:36.323Z,101403.66
2022-10-28T17:19:38.557Z,101412.63
2022-10-28T17:24:40.076Z,101411.56
2022-10-28T17:29:41.620Z,101412.13
2022-10-28T17:34:43.210Z,101412.53
2022-10-28T17:39:44.836Z,101416.03
2022-10-28T17:44:46.364Z,101412.69
2022-10-28T17:49:47.906Z,101432.66
2022-10-28T17:54:49.398Z,101440.25
2022-10-28T17:59:50.864Z,101449.44
2022-10-28T18:04:52.439Z,101451.47
2022-10-28T18:09:54.021Z,101442.50
2022-10-28T18:14:55.526Z,101454.09
2022-10-28T18:19:57.697Z,101452.47
2022-10-28T18:24:59.191Z,101450.41
2022-10-28T18:30:00.716Z,101448.81
2022-10-28T18:35:02.334Z,101470.88
2022-10-28T18:40:04.211Z,101476.56
2022-10-28T18:45:06.116Z,101460.53
2022-10-28T18:50:07.968Z,101466.63
2022-10-28T18:55:09.769Z,101469.72
2022-10-28T19:00:18.026Z,101473.66
2022-10-28T19:05:20.538Z,101483.56
2022-10-28T19:10:22.049Z,101484.44
2022-10-28T19:15:23.595Z,101491.44
2022-10-28T19:20:25.250Z,101488.47
2022-10-28T19:25:26.729Z,101501.13
2022-10-28T19:30:28.327Z,101504.31
2022-10-28T19:35:32.717Z,101507.66
2022-10-28T19:40:34.198Z,101522.97
2022-10-28T19:45:35.694Z,101517.59
2022-10-28T19:50:37.313Z,101513.91
2022-10-28T19:55:38.802Z,101515.72
2022-10-28T20:00:40.334Z,101523.16
2022-10-28T20:05:41.792Z,101529.28
2022-10-28T20:10:44.019Z,101533.28
2022-10-28T20:15:45.775Z,101544.72
2022-10-28T20:20:47.594Z,101540.66
2022-10-28T20:25:51.235Z,101559.44
2022-10-28T20:31:07.532Z,101562.47
2022-10-28T20:36:29.639Z,101557.97
2022-10-28T20:41:33.487Z,101565.50
2022-10-28T20:46:35.608Z,101569.00
2022-10-28T20:51:37.073Z,101576.75
2022-10-28T20:56:40.319Z,101583.88
2022-10-28T21:01:42.004Z,101583.38
2022-10-28T21:06:43.582Z,101585.63
2022-10-28T21:11:46.177Z,101585.69
2022-10-28T21:16:51.128Z,101587.69
2022-10-28T21:21:52.515Z,101595.25
2022-10-28T21:26:53.928Z,101591.78
2022-10-28T21:31:55.344Z,101597.31
2022-10-28T21:36:56.768Z,101604.06
2022-10-28T21:41:58.185Z,101605.75
2022-10-28T21:47:01.354Z,101602.41
2022-10-28T21:52:02.824Z,101594.81
2022-10-28T21:57:05.142Z,101590.81
2022-10-28T22:02:06.651Z,101602.50
2022-10-28T22:07:08.153Z,101605.63
2022-10-28T22:12:09.553Z,101607.66
2022-10-28T22:17:10.962Z,101599.72
2022-10-28T22:22:13.671Z,101608.88
2022-10-28T22:27:15.133Z,101615.28
2022-10-28T22:32:16.558Z,101612.84
2022-10-28T22:37:18.616Z,101608.38
2022-10-28T22:42:20.093Z,101603.16
2022-10-28T22:47:21.509Z,101610.47
2022-10-28T22:52:22.915Z,101616.78
2022-10-28T22:57:24.357Z,101610.69
2022-10-28T23:02:25.830Z,101618.16
2022-10-28T23:07:27.343Z,101614.44
2022-10-28T23:12:28.800Z,101610.47
2022-10-28T23:17:30.215Z,101621.69
2022-10-28T23:22:31.679Z,101620.16
2022-10-28T23:27:33.069Z,101617.59
2022-10-28T23:32:34.918Z,101627.44
2022-10-28T23:37:36.425Z,101634.41
2022-10-28T23:42:37.863Z,101624.47
2022-10-28T23:47:39.727Z,101618.69
2022-10-28T23:52:41.731Z,101628.06
2022-10-28T23:57:43.138Z,101626.72
